Delta, UT (84624)

1:13 PM MDT on October 23, 2014 (GMT -0600)
Oak City | Change Station
CLOSE
Current Station
Personal Weather Station
Location: Oak City, UT
Elevation: 5135 ft
Nearby Weather Stations

Elev 5135 ft 39.37 °N, 112.33 °W | Updated 2 minutes ago

Clear
Clear
73.0 °F
Feels Like 75 °F
N
10.0
Wind Variable Wind from SSW
Gusts 14.0 mph

Today
High -- | Low -- °F
--% Chance of Precip.
Yesterday
High -- | Low -- °F
Precip. -- in
7:48 AM 6:39 PM
Waning Crescent, 0% visible
Pressure 30.15 in
Visibility 10.0 miles
Clouds Scattered Clouds 10000 ft
Heat Index 75 °F
Dew Point 28 °F
Humidity 19%
Rainfall 0.00 in
Snow Depth Not available.
UV 4 out of 12
Pollen 1.80 out of 12
Air Quality Not available.
Flu Activity Sporadic
METAR KPVU 231849Z 09003KT 10SM SCT100 19/01 A3015

More Conditions Fewer Conditions

Pressure 30.15 in
Visibility 10.0 miles
Clouds Scattered Clouds 10000 ft
Heat Index 75 °F
Dew Point 28 °F
Humidity 19%
Rainfall 0.00 in
Snow Depth Not available.
UV 4 out of 12
Pollen 1.80 out of 12
Air Quality Not available.
Flu Activity Sporadic
METAR KPVU 231849Z 09003KT 10SM SCT100 19/01 A3015

More Conditions Fewer Conditions

10-Day Weather Forecast

Almanac

Astronomy

Oct. 23, 2014 Rise Set
Actual Time 7:48 AM MDT 6:39 PM MDT
Civil Twilight 7:20 AM MDT 7:07 PM MDT
Nautical Twilight 6:49 AM MDT 7:38 PM MDT
Astronomical Twilight 6:18 AM MDT 8:09 PM MDT
Moon 7:31 AM MDT 6:43 PM MDT
Length of Visible Light 11h 46m
Length of Day
10h 51m
Tomorrow will be 2m 24s shorter.
Waning Crescent, 0% of the Moon is Illuminated
Today
Waning Crescent
Oct 23
New
Oct 30
First Quarter
Nov 6
Full
Nov 14
Last Quarter

Today's Extremes

State Highs State Lows

Community

WunderPhotos

Upload Photos

1,764,346 photos uploaded!

WunderBlogs® & News

By Dr. Jeff Masters
Director of Meteorology, Weather Underground
By Kari Strenfel
Meteorologist, Weather Underground
By Christopher C. Burt
Weather Historian, Weather Underground
October 23, 2014
October 23, 2014
October 23, 2014

Nearby

Snow Depth

Station Depth Elevation
Vernon Creek 0 in 7500 ft
Pickle Keg 0 in 9600 ft
Gooseberry R.S. 0 in 7920 ft
Box Creek 0 in 9800 ft
Rocky Basin-Settlement 0 in 8900 ft

Earthquake Activity

City Distance Mag. Time & Date
Ferron, Utah 65 miles 2.5 10:53 PM MDT
2014-10-21
Minimum magnitude displayed is 2.5.

Coastal Water Temperatures

Place Temperature
No Stations Reporting

Nearby Weather Stations